Time;durP1;ratioP1;P1;durP2;ratioP2;P2;SDS_P1;SDS_P2;PMS_P1;PMS_P2;Temp;Humidity;BMP_temperature;BMP_pressure;BME280_temperature;BME280_humidity;BME280_pressure;Samples;Min_cycle;Max_cycle;Signal;HPM_P1;HPM_P2
2023/12/01 00:00:39;;;;;;;109.40;45.15;;;-0.70;99.90;;;;;;4934774;28;20047;-68
2023/12/01 00:03:05;;;;;;;100.22;39.60;;;-0.70;99.90;;;;;;4920009;28;20730;-69
2023/12/01 00:05:31;;;;;;;100.18;41.33;;;-0.70;99.90;;;;;;4950658;28;20062;-66
2023/12/01 00:07:57;;;;;;;93.20;39.10;;;-1.70;99.90;;;;;;4934862;28;20126;-66
2023/12/01 00:10:22;;;;;;;95.78;40.00;;;-1.70;99.90;;;;;;4918336;28;20101;-67
2023/12/01 00:12:48;;;;;;;87.45;37.08;;;-1.70;99.90;;;;;;4951058;28;20197;-67
2023/12/01 00:15:14;;;;;;;77.07;32.78;;;-1.70;99.90;;;;;;4950635;28;20441;-67
2023/12/01 00:17:40;;;;;;;87.65;39.88;;;-1.70;99.90;;;;;;4934058;28;20049;-68
2023/12/01 00:20:06;;;;;;;86.20;37.10;;;-1.60;99.90;;;;;;4950465;28;20043;-68
2023/12/01 00:22:32;;;;;;;86.93;36.40;;;-1.60;99.90;;;;;;4950273;28;20061;-68
2023/12/01 00:24:58;;;;;;;69.95;28.90;;;-1.80;99.90;;;;;;4950271;28;20039;-68
2023/12/01 00:27:23;;;;;;;89.32;36.72;;;-0.90;99.90;;;;;;4934687;28;20043;-68
2023/12/01 00:29:49;;;;;;;74.35;31.25;;;-0.80;99.90;;;;;;4918028;28;20050;-67
2023/12/01 00:32:15;;;;;;;87.90;36.88;;;-1.90;99.90;;;;;;4918077;28;20043;-68
2023/12/01 00:34:41;;;;;;;72.82;28.55;;;-2.00;99.90;;;;;;4950630;28;20050;-68
2023/12/01 00:37:08;;;;;;;68.80;28.23;;;-1.00;99.90;;;;;;4935174;28;20050;-68
2023/12/01 00:39:33;;;;;;;82.72;33.95;;;-1.10;99.90;;;;;;4934221;28;20081;-67
2023/12/01 00:41:59;;;;;;;81.45;32.13;;;-1.10;99.90;;;;;;4949994;28;20122;-68
2023/12/01 00:44:25;;;;;;;64.25;26.10;;;-1.20;99.90;;;;;;4918307;28;20369;-68
2023/12/01 00:46:51;;;;;;;73.50;32.08;;;-1.10;99.90;;;;;;4934532;28;20421;-68
2023/12/01 00:49:16;;;;;;;69.40;30.45;;;-1.50;99.90;;;;;;4933867;28;20097;-68
2023/12/01 00:51:43;;;;;;;73.53;32.20;;;-2.30;99.90;;;;;;4934430;28;20068;-67
2023/12/01 00:54:09;;;;;;;74.57;30.48;;;-1.80;99.90;;;;;;4934296;28;20105;-67
2023/12/01 00:56:35;;;;;;;59.72;26.13;;;-2.00;99.90;;;;;;4950007;28;20721;-67
2023/12/01 00:59:01;;;;;;;70.35;30.95;;;-1.50;99.90;;;;;;4934008;28;20062;-68
2023/12/01 01:01:26;;;;;;;71.45;30.48;;;-2.30;99.90;;;;;;4949862;28;20057;-67
2023/12/01 01:03:52;;;;;;;70.90;30.80;;;-1.90;99.90;;;;;;4934006;28;20508;-67
2023/12/01 01:06:18;;;;;;;73.43;31.35;;;-2.20;99.90;;;;;;4933523;28;20142;-67
2023/12/01 01:08:44;;;;;;;70.43;30.23;;;-2.20;99.90;;;;;;4934215;28;20078;-68
2023/12/01 01:11:09;;;;;;;73.15;31.27;;;-2.20;99.90;;;;;;4947619;28;20115;-67
2023/12/01 01:13:35;;;;;;;62.08;27.88;;;-2.40;99.90;;;;;;4917956;28;20118;-67
2023/12/01 01:16:01;;;;;;;66.82;27.25;;;-1.70;99.90;;;;;;4950401;28;20357;-68
2023/12/01 01:18:26;;;;;;;65.72;29.65;;;-1.50;99.90;;;;;;4949815;28;20038;-67
2023/12/01 01:20:52;;;;;;;66.47;30.42;;;-1.80;99.90;;;;;;4950304;28;20042;-67
2023/12/01 01:23:18;;;;;;;58.95;27.13;;;-2.00;99.90;;;;;;4934052;28;20038;-68
2023/12/01 01:25:43;;;;;;;58.10;26.15;;;-2.40;99.90;;;;;;4949369;28;20042;-68
2023/12/01 01:28:09;;;;;;;58.05;26.73;;;-1.70;99.90;;;;;;4949510;28;20035;-67
2023/12/01 01:30:35;;;;;;;63.17;28.42;;;-1.90;99.90;;;;;;4933738;28;20225;-67
2023/12/01 01:33:01;;;;;;;52.00;24.75;;;-2.40;99.90;;;;;;4934125;28;21247;-67
2023/12/01 01:35:27;;;;;;;48.72;24.13;;;-2.50;99.90;;;;;;4950050;28;20047;-67
2023/12/01 01:37:53;;;;;;;52.00;23.58;;;-2.10;99.90;;;;;;4950483;28;20228;-67
2023/12/01 01:40:18;;;;;;;52.25;25.25;;;-2.20;99.90;;;;;;4932183;28;20130;-67
2023/12/01 01:42:44;;;;;;;44.25;21.83;;;-2.30;99.90;;;;;;4950386;28;20050;-67
2023/12/01 01:45:10;;;;;;;45.85;22.17;;;-2.20;99.90;;;;;;4933539;28;20081;-67
2023/12/01 01:47:36;;;;;;;42.83;21.25;;;-2.80;99.90;;;;;;4949274;28;20425;-67
2023/12/01 01:50:03;;;;;;;42.63;21.23;;;-2.50;99.90;;;;;;4933569;28;20301;-67
2023/12/01 01:52:29;;;;;;;49.08;23.45;;;-2.50;99.90;;;;;;4949721;28;20034;-67
2023/12/01 01:54:56;;;;;;;44.50;21.80;;;-2.30;99.90;;;;;;4964733;28;20540;-66
2023/12/01 01:57:22;;;;;;;43.38;20.40;;;-2.50;99.90;;;;;;4932894;28;20043;-67
2023/12/01 01:59:48;;;;;;;43.40;21.48;;;-3.00;99.90;;;;;;4950461;28;20553;-66
2023/12/01 02:02:14;;;;;;;42.28;20.60;;;-3.20;99.90;;;;;;4936901;28;20133;-67
2023/12/01 02:04:40;;;;;;;40.58;21.10;;;-2.90;99.90;;;;;;4953375;28;20055;-67
2023/12/01 02:07:08;;;;;;;43.38;22.17;;;-3.20;99.90;;;;;;4921316;28;20284;-69
2023/12/01 02:09:34;;;;;;;43.10;23.02;;;-3.00;99.90;;;;;;4936577;28;20622;-66
2023/12/01 02:12:00;;;;;;;38.72;21.50;;;-2.80;99.90;;;;;;4984352;28;20050;-67
2023/12/01 02:14:28;;;;;;;40.75;20.33;;;-3.30;99.90;;;;;;4952693;28;20082;-66
2023/12/01 02:16:54;;;;;;;41.72;20.98;;;-2.60;99.90;;;;;;4937823;28;20436;-67
2023/12/01 02:19:20;;;;;;;45.80;23.33;;;-2.70;99.90;;;;;;4952757;28;20047;-66
2023/12/01 02:21:46;;;;;;;43.03;22.38;;;-2.90;99.90;;;;;;4921254;28;20136;-67
2023/12/01 02:24:12;;;;;;;49.50;24.05;;;-3.40;99.90;;;;;;4952817;28;20912;-67
2023/12/01 02:26:38;;;;;;;43.75;21.80;;;-3.40;99.90;;;;;;4936842;28;20035;-67
2023/12/01 02:29:07;;;;;;;43.75;23.05;;;-2.70;99.90;;;;;;4953130;28;20548;-67
2023/12/01 02:31:33;;;;;;;45.55;24.05;;;-2.80;99.90;;;;;;4952366;28;20109;-67
2023/12/01 02:33:59;;;;;;;40.60;22.15;;;-3.40;99.90;;;;;;4952878;28;20035;-67
2023/12/01 02:36:25;;;;;;;46.10;23.38;;;-2.70;99.90;;;;;;4952706;28;20319;-67
2023/12/01 02:38:51;;;;;;;46.30;23.35;;;-2.70;99.90;;;;;;4952343;28;20049;-66
2023/12/01 02:41:19;;;;;;;46.70;23.42;;;-3.00;99.90;;;;;;4952442;28;20055;-67
2023/12/01 02:43:45;;;;;;;45.22;21.95;;;-3.40;99.90;;;;;;4920348;28;20039;-67
2023/12/01 02:46:12;;;;;;;44.50;21.67;;;-3.00;99.90;;;;;;4951898;28;20042;-67
2023/12/01 02:48:41;;;;;;;49.65;23.13;;;-3.30;99.90;;;;;;4920193;28;20339;-67
2023/12/01 02:51:07;;;;;;;44.55;23.60;;;-3.20;99.90;;;;;;4935602;28;20077;-67
2023/12/01 02:53:34;;;;;;;43.42;23.48;;;-3.70;99.90;;;;;;4923522;28;20500;-67
2023/12/01 02:56:03;;;;;;;45.65;23.58;;;-3.80;99.90;;;;;;4951525;28;20043;-67
2023/12/01 02:58:29;;;;;;;49.10;25.00;;;-3.20;99.90;;;;;;4919604;28;20053;-67
2023/12/01 03:00:54;;;;;;;45.10;24.55;;;-3.50;99.90;;;;;;4952435;28;20042;-67
2023/12/01 03:03:20;;;;;;;45.70;24.20;;;-3.80;99.90;;;;;;4936024;28;20174;-67
2023/12/01 03:05:46;;;;;;;50.47;25.27;;;-3.80;99.90;;;;;;4951221;28;20055;-68
2023/12/01 03:08:11;;;;;;;47.20;23.00;;;-3.20;99.90;;;;;;4935583;28;20058;-67
2023/12/01 03:10:37;;;;;;;51.53;25.10;;;-3.60;99.90;;;;;;4919423;28;20307;-67
2023/12/01 03:13:03;;;;;;;48.33;24.50;;;-3.90;99.90;;;;;;4951879;28;20057;-67
2023/12/01 03:15:29;;;;;;;51.42;25.38;;;-4.00;99.90;;;;;;4950955;28;20513;-67
2023/12/01 03:17:55;;;;;;;48.97;24.27;;;-3.40;99.90;;;;;;4951651;28;20163;-68
2023/12/01 03:20:21;;;;;;;51.45;25.67;;;-3.30;99.90;;;;;;4951229;28;20041;-67
2023/12/01 03:22:50;;;;;;;51.53;26.05;;;-4.10;99.90;;;;;;4951230;28;20046;-65
2023/12/01 03:25:16;;;;;;;51.30;25.13;;;-3.30;99.90;;;;;;4951123;28;20320;-65
2023/12/01 03:27:43;;;;;;;51.80;27.15;;;-4.10;99.90;;;;;;4919185;28;20035;-65
2023/12/01 03:30:14;;;;;;;55.13;26.55;;;-3.40;99.90;;;;;;4919094;28;20044;-65
2023/12/01 03:32:50;;;;;;;55.00;27.52;;;-4.10;99.90;;;;;;4934954;28;20049;-65
2023/12/01 03:35:20;;;;;;;51.13;26.60;;;-3.60;99.90;;;;;;4951227;28;20050;-65
2023/12/01 03:37:48;;;;;;;56.53;29.15;;;-3.40;99.90;;;;;;4934364;28;20046;-65
2023/12/01 03:40:14;;;;;;;52.22;28.60;;;-3.80;99.90;;;;;;4949663;28;20076;-65
2023/12/01 03:42:44;;;;;;;47.92;26.83;;;-4.00;99.90;;;;;;4934700;28;20043;-66
2023/12/01 03:45:12;;;;;;;51.72;28.35;;;-3.90;99.90;;;;;;4934367;28;20043;-65
2023/12/01 03:47:38;;;;;;;49.35;25.88;;;-3.30;99.90;;;;;;4950711;28;20100;-65
2023/12/01 03:50:04;;;;;;;47.50;27.20;;;-3.60;99.90;;;;;;4934379;28;20049;-65
2023/12/01 03:52:30;;;;;;;51.42;28.10;;;-3.20;99.90;;;;;;4950778;28;20227;-66
2023/12/01 03:54:58;;;;;;;54.70;28.65;;;-3.60;99.90;;;;;;4935019;28;20122;-65
2023/12/01 03:57:27;;;;;;;52.38;29.52;;;-3.20;99.90;;;;;;4950714;28;20046;-65
2023/12/01 03:59:56;;;;;;;57.42;28.88;;;-3.50;99.90;;;;;;4950536;28;20046;-65
2023/12/01 04:02:21;;;;;;;53.47;27.90;;;-3.70;99.90;;;;;;4950664;28;20346;-65
2023/12/01 04:04:49;;;;;;;51.55;27.10;;;-3.80;99.90;;;;;;4939037;28;20110;-64
2023/12/01 04:07:14;;;;;;;51.53;27.08;;;-3.40;99.90;;;;;;4921949;28;20074;-64
2023/12/01 04:09:41;;;;;;;57.92;27.45;;;-3.50;99.90;;;;;;4934820;28;20125;-65
2023/12/01 04:12:06;;;;;;;53.17;28.23;;;-3.80;99.90;;;;;;4934477;28;20386;-64
2023/12/01 04:14:32;;;;;;;55.50;28.42;;;-4.20;99.90;;;;;;4950463;28;20207;-65
2023/12/01 04:17:06;;;;;;;60.67;28.30;;;-4.10;99.90;;;;;;4933737;28;20050;-65
2023/12/01 04:19:31;;;;;;;;;;;-4.10;99.90;;;;;;4923357;28;20066;-65
2023/12/01 04:21:57;;;;;;;67.65;31.25;;;-3.60;99.90;;;;;;4965060;28;19922;-65
2023/12/01 04:24:22;;;;;;;60.85;28.80;;;-3.60;99.90;;;;;;4950550;28;20046;-65
2023/12/01 04:26:48;;;;;;;64.32;29.95;;;-4.20;99.90;;;;;;4949863;28;20122;-65
2023/12/01 04:29:14;;;;;;;68.95;32.90;;;-4.20;99.90;;;;;;4934035;28;20126;-65
2023/12/01 04:31:40;;;;;;;64.10;30.08;;;-4.10;99.90;;;;;;4938468;28;20203;-65
2023/12/01 04:34:06;;;;;;;72.35;33.70;;;-3.80;99.90;;;;;;4933819;28;20146;-65
2023/12/01 04:36:31;;;;;;;83.93;38.88;;;-3.90;99.90;;;;;;4918081;28;20047;-65
2023/12/01 04:38:57;;;;;;;85.82;38.78;;;-4.50;99.90;;;;;;4949646;28;20046;-65
2023/12/01 04:41:23;;;;;;;87.25;40.08;;;-4.50;99.90;;;;;;4933708;28;20069;-64
2023/12/01 04:43:48;;;;;;;85.82;40.05;;;-4.20;99.90;;;;;;4906727;28;20292;-65
2023/12/01 04:46:14;;;;;;;86.70;40.55;;;-4.20;99.90;;;;;;4933192;28;20054;-65
2023/12/01 04:48:40;;;;;;;96.10;40.85;;;-4.10;99.90;;;;;;4949484;28;20474;-65
2023/12/01 04:51:06;;;;;;;88.95;39.78;;;-3.80;99.90;;;;;;4918132;28;20046;-65
2023/12/01 04:53:31;;;;;;;86.72;40.33;;;-3.80;99.90;;;;;;4948696;28;20568;-64
2023/12/01 04:55:57;;;;;;;91.57;40.10;;;-3.80;99.90;;;;;;4965614;28;20664;-65
2023/12/01 04:58:23;;;;;;;85.07;39.83;;;-3.90;99.90;;;;;;4933608;28;20051;-64
2023/12/01 05:00:48;;;;;;;77.75;38.70;;;-3.90;99.90;;;;;;4933783;28;20101;-66
2023/12/01 05:03:14;;;;;;;82.75;38.45;;;-4.40;99.90;;;;;;4933727;28;20820;-65
2023/12/01 05:05:41;;;;;;;82.35;39.28;;;-3.80;99.90;;;;;;4901235;28;20077;-65
2023/12/01 05:08:08;;;;;;;84.80;39.08;;;-3.70;99.90;;;;;;4934174;28;20170;-65
2023/12/01 05:10:35;;;;;;;85.43;39.63;;;-3.70;99.90;;;;;;4949884;28;20536;-65
2023/12/01 05:13:03;;;;;;;87.85;39.38;;;-4.30;99.90;;;;;;4949528;28;20106;-64
2023/12/01 05:15:30;;;;;;;86.28;39.05;;;-4.40;99.90;;;;;;4949610;28;20042;-64
2023/12/01 05:18:00;;;;;;;91.15;40.20;;;-3.80;99.90;;;;;;4933715;28;20050;-65
2023/12/01 05:20:27;;;;;;;84.75;38.50;;;-4.40;99.90;;;;;;4933345;28;20315;-65
2023/12/01 05:22:58;;;;;;;84.90;38.75;;;-4.40;99.90;;;;;;4950430;28;20587;-65
2023/12/01 05:25:28;;;;;;;90.35;38.85;;;-4.20;99.90;;;;;;4905117;28;20118;-65
2023/12/01 05:27:55;;;;;;;88.75;38.80;;;-4.50;99.90;;;;;;4948729;28;20121;-64
2023/12/01 05:30:23;;;;;;;86.40;39.28;;;-4.60;99.90;;;;;;4917408;28;20094;-64
2023/12/01 05:32:51;;;;;;;86.55;38.38;;;-4.10;99.90;;;;;;4949874;28;20122;-67
2023/12/01 05:35:18;;;;;;;84.18;39.10;;;-4.30;99.90;;;;;;4932422;28;20129;-67
2023/12/01 05:37:48;;;;;;;80.95;37.10;;;-4.60;99.90;;;;;;4936838;28;20122;-67
2023/12/01 05:40:20;;;;;;;77.57;36.33;;;-4.50;99.90;;;;;;4953814;28;20346;-67
2023/12/01 05:42:47;;;;;;;78.68;37.35;;;-4.60;99.90;;;;;;4928540;28;20046;-67
2023/12/01 05:45:14;;;;;;;79.70;37.20;;;-4.70;99.90;;;;;;4952361;28;20109;-67
2023/12/01 05:47:44;;;;;;;85.68;36.90;;;-4.20;99.90;;;;;;4953172;28;20074;-67
2023/12/01 05:50:19;;;;;;;84.05;37.72;;;-4.70;99.90;;;;;;4936915;28;20047;-67
2023/12/01 05:52:46;;;;;;;79.85;36.55;;;-4.20;99.90;;;;;;4937492;28;20030;-67
2023/12/01 05:55:16;;;;;;;79.95;35.85;;;-4.80;99.90;;;;;;4925539;28;20034;-67
2023/12/01 05:57:50;;;;;;;73.82;35.97;;;-4.30;99.90;;;;;;4937333;28;20525;-67
2023/12/01 06:00:24;;;;;;;76.32;37.53;;;-4.80;99.90;;;;;;4924811;28;20657;-66
2023/12/01 06:02:53;;;;;;;80.22;35.58;;;-4.70;99.90;;;;;;4952832;28;20520;-66
2023/12/01 06:05:20;;;;;;;78.97;35.03;;;-4.50;99.90;;;;;;4920632;28;20046;-66
2023/12/01 06:07:52;;;;;;;82.13;38.05;;;-4.40;99.90;;;;;;4952800;28;20356;-64
2023/12/01 06:10:18;;;;;;;74.72;34.45;;;-4.30;99.90;;;;;;4954135;28;20519;-63
2023/12/01 06:12:44;;;;;;;83.82;37.15;;;-4.30;99.90;;;;;;4954219;28;20110;-65
2023/12/01 06:15:16;;;;;;;79.35;35.75;;;-4.40;99.90;;;;;;4954793;28;20568;-65
2023/12/01 06:17:44;;;;;;;82.72;37.85;;;-4.40;99.90;;;;;;4969624;28;20041;-64
2023/12/01 06:20:18;;;;;;;78.50;37.40;;;-4.40;99.90;;;;;;4955055;28;20039;-64
2023/12/01 06:22:48;;;;;;;81.30;37.22;;;-4.80;99.90;;;;;;4938756;28;20287;-65
2023/12/01 06:25:15;;;;;;;75.55;34.90;;;-4.50;99.90;;;;;;4954799;28;20051;-64
2023/12/01 06:27:41;;;;;;;74.43;36.22;;;-4.80;99.90;;;;;;4954308;28;20046;-64
2023/12/01 06:30:14;;;;;;;79.25;36.95;;;-4.30;99.90;;;;;;4938582;28;20046;-65
2023/12/01 06:32:44;;;;;;;74.33;35.43;;;-4.70;99.90;;;;;;4938589;28;20054;-65
2023/12/01 06:35:11;;;;;;;70.75;34.28;;;-4.30;99.90;;;;;;4954056;28;20297;-65
2023/12/01 06:37:38;;;;;;;76.63;34.67;;;-4.70;99.90;;;;;;4953839;28;21027;-65
2023/12/01 06:40:11;;;;;;;74.28;33.25;;;-4.70;99.90;;;;;;4937854;28;20043;-65
2023/12/01 06:42:43;;;;;;;70.78;33.80;;;-4.80;99.90;;;;;;4955246;28;20255;-65
2023/12/01 06:45:12;;;;;;;76.68;35.25;;;-4.80;99.90;;;;;;4937465;28;20050;-64
2023/12/01 06:47:40;;;;;;;72.70;31.90;;;-4.30;99.90;;;;;;4925331;28;20050;-64
2023/12/01 06:50:07;;;;;;;75.10;35.47;;;-4.70;99.90;;;;;;4938097;28;20034;-65
2023/12/01 06:52:33;;;;;;;75.18;35.67;;;-4.60;99.90;;;;;;4937582;28;20054;-65
2023/12/01 06:54:59;;;;;;;72.70;34.38;;;-4.70;99.90;;;;;;4954649;28;20243;-65
2023/12/01 06:57:25;;;;;;;77.18;34.33;;;-4.30;99.90;;;;;;4937949;28;20137;-65
2023/12/01 06:59:52;;;;;;;73.90;33.58;;;-4.20;99.90;;;;;;4905711;28;20050;-64
2023/12/01 07:02:19;;;;;;;69.55;34.40;;;-4.70;99.90;;;;;;4937391;28;20935;-64
2023/12/01 07:04:44;;;;;;;70.88;34.58;;;-4.20;99.90;;;;;;4953440;28;20426;-64
2023/12/01 07:07:12;;;;;;;73.78;34.60;;;-4.50;99.90;;;;;;4952926;28;20066;-65
2023/12/01 07:09:43;;;;;;;73.32;35.45;;;-4.50;99.90;;;;;;4921642;28;20035;-64
2023/12/01 07:12:09;;;;;;;69.28;34.92;;;-4.50;99.90;;;;;;4954431;28;20121;-64
2023/12/01 07:14:36;;;;;;;71.43;35.97;;;-4.00;99.90;;;;;;4909691;28;20049;-64
2023/12/01 07:17:05;;;;;;;75.22;36.35;;;-4.40;99.90;;;;;;4921288;28;20122;-64
2023/12/01 07:19:34;;;;;;;71.78;34.47;;;-4.50;99.90;;;;;;4937134;28;20391;-64
2023/12/01 07:22:00;;;;;;;75.20;35.90;;;-4.40;99.90;;;;;;4953299;28;20035;-64
2023/12/01 07:24:26;;;;;;;73.93;35.67;;;-4.30;99.90;;;;;;4953114;28;20046;-64
2023/12/01 07:26:52;;;;;;;68.75;33.28;;;-4.60;99.90;;;;;;4923503;28;20696;-65
2023/12/01 07:29:18;;;;;;;74.35;35.05;;;-4.60;99.90;;;;;;4920294;28;20141;-64
2023/12/01 07:31:44;;;;;;;72.25;34.15;;;-4.50;99.90;;;;;;4951472;28;20458;-64
2023/12/01 07:34:11;;;;;;;72.65;35.95;;;-4.70;99.90;;;;;;4951491;28;20047;-65
2023/12/01 07:36:38;;;;;;;73.50;36.45;;;-4.60;99.90;;;;;;4953850;28;20051;-65
2023/12/01 07:39:04;;;;;;;70.85;35.05;;;-4.20;99.90;;;;;;4951945;28;20038;-65
2023/12/01 07:41:31;;;;;;;78.82;36.60;;;-4.70;99.90;;;;;;4951055;28;20054;-65
2023/12/01 07:43:58;;;;;;;78.07;37.25;;;-4.30;99.90;;;;;;4935225;28;20509;-65
2023/12/01 07:46:23;;;;;;;78.90;37.10;;;-4.60;99.90;;;;;;4933598;28;20137;-65
2023/12/01 07:48:49;;;;;;;76.07;36.38;;;-4.40;99.90;;;;;;4951483;28;20038;-65
2023/12/01 07:51:16;;;;;;;75.53;35.88;;;-4.60;99.90;;;;;;4952311;28;20153;-65
2023/12/01 07:53:45;;;;;;;75.70;36.33;;;-4.10;99.90;;;;;;4952354;28;20138;-65
2023/12/01 07:56:19;;;;;;;74.25;37.80;;;-4.10;99.90;;;;;;4951906;28;20043;-66
2023/12/01 07:58:45;;;;;;;72.05;35.45;;;-4.50;99.90;;;;;;4951329;28;20121;-65
2023/12/01 08:01:14;;;;;;;75.93;35.95;;;-4.60;99.90;;;;;;4950797;28;20046;-65
2023/12/01 08:03:43;;;;;;;75.53;37.08;;;-4.10;99.90;;;;;;4951373;28;20070;-66
2023/12/01 08:06:08;;;;;;;71.30;35.90;;;-4.00;99.90;;;;;;4950760;28;20049;-67
2023/12/01 08:08:35;;;;;;;72.30;34.60;;;-4.30;99.90;;;;;;4934177;28;20058;-67
2023/12/01 08:11:04;;;;;;;75.03;36.95;;;-3.90;99.90;;;;;;4903470;28;20344;-65
2023/12/01 08:13:30;;;;;;;72.82;35.97;;;-4.30;99.90;;;;;;4949794;28;20043;-65
2023/12/01 08:15:55;;;;;;;76.88;36.58;;;-3.70;99.90;;;;;;4935079;28;20050;-64
2023/12/01 08:18:21;;;;;;;75.50;36.97;;;-3.70;99.90;;;;;;4935526;28;20418;-64
2023/12/01 08:20:47;;;;;;;72.63;35.90;;;-4.10;99.90;;;;;;4951246;28;20129;-64
2023/12/01 08:23:13;;;;;;;77.32;36.83;;;-3.70;99.90;;;;;;4935184;28;20683;-64
2023/12/01 08:25:39;;;;;;;76.38;35.53;;;-3.80;99.90;;;;;;4949725;28;20070;-65
2023/12/01 08:28:05;;;;;;;75.78;36.70;;;-3.90;99.90;;;;;;4934368;28;20489;-65
2023/12/01 08:30:30;;;;;;;73.10;35.20;;;-4.00;99.90;;;;;;4934762;28;20038;-64
2023/12/01 08:32:57;;;;;;;73.38;36.55;;;-4.20;99.90;;;;;;4934672;28;20418;-65
2023/12/01 08:35:22;;;;;;;72.45;35.80;;;-3.80;99.90;;;;;;4933126;28;20120;-64
2023/12/01 08:37:48;;;;;;;78.35;37.60;;;-3.70;99.90;;;;;;4949716;28;20437;-64
2023/12/01 08:40:14;;;;;;;70.68;35.45;;;-3.60;99.90;;;;;;4917639;28;20129;-65
2023/12/01 08:42:40;;;;;;;76.72;37.33;;;-3.90;99.90;;;;;;4917258;28;20182;-64
2023/12/01 08:45:07;;;;;;;74.10;37.05;;;-3.50;99.90;;;;;;4949834;28;20801;-64
2023/12/01 08:47:33;;;;;;;71.35;36.00;;;-3.90;99.90;;;;;;4948007;28;20465;-64
2023/12/01 08:49:59;;;;;;;75.22;35.92;;;-3.20;99.90;;;;;;4933670;28;20045;-64
2023/12/01 08:52:25;;;;;;;74.30;36.78;;;-3.40;99.90;;;;;;4933267;28;20109;-65
2023/12/01 08:54:51;;;;;;;73.53;36.47;;;-3.30;99.90;;;;;;4933347;28;20039;-65
2023/12/01 08:57:18;;;;;;;74.43;37.00;;;-3.10;99.90;;;;;;4931206;28;20125;-65
2023/12/01 08:59:43;;;;;;;73.57;36.35;;;-3.10;99.90;;;;;;4928430;28;20086;-65
2023/12/01 09:02:10;;;;;;;70.00;36.38;;;-3.60;99.90;;;;;;4918519;28;20122;-64
2023/12/01 09:04:35;;;;;;;72.03;35.60;;;-3.40;99.90;;;;;;4916625;28;20309;-64
2023/12/01 09:07:01;;;;;;;70.30;37.03;;;-3.50;99.90;;;;;;4933274;28;20058;-65
2023/12/01 09:09:27;;;;;;;72.55;36.83;;;-3.00;99.90;;;;;;4920710;28;20062;-64
2023/12/01 09:11:53;;;;;;;68.68;36.30;;;-2.70;99.90;;;;;;4939531;28;20303;-64
2023/12/01 09:14:20;;;;;;;67.63;35.80;;;-2.70;99.90;;;;;;4939515;28;20130;-65
2023/12/01 09:16:45;;;;;;;72.55;36.03;;;-2.60;99.90;;;;;;4942053;28;20755;-65
2023/12/01 09:19:11;;;;;;;67.28;36.08;;;-2.50;99.90;;;;;;4940998;28;20050;-65
2023/12/01 09:21:37;;;;;;;66.00;34.40;;;-3.00;99.90;;;;;;4908775;28;20516;-64
2023/12/01 09:24:03;;;;;;;63.83;35.05;;;-2.50;99.90;;;;;;4941636;28;20160;-65
2023/12/01 09:26:29;;;;;;;65.15;35.63;;;-2.70;99.90;;;;;;4941621;28;20512;-64
2023/12/01 09:28:54;;;;;;;68.72;35.60;;;-2.70;99.90;;;;;;4957776;28;20301;-65
2023/12/01 09:31:21;;;;;;;65.93;34.28;;;-2.20;99.90;;;;;;4926304;28;20205;-65
2023/12/01 09:33:47;;;;;;;60.17;35.55;;;-2.20;99.90;;;;;;4926481;28;20588;-65
2023/12/01 09:36:17;;;;;;;59.88;34.90;;;-2.00;99.90;;;;;;4940393;28;20678;-65
2023/12/01 09:38:49;;;;;;;56.65;33.58;;;-2.00;99.90;;;;;;4941728;28;20130;-64
2023/12/01 09:41:16;;;;;;;57.75;32.92;;;-2.10;99.90;;;;;;4910703;28;20248;-65
2023/12/01 09:43:43;;;;;;;56.65;34.33;;;-2.00;99.90;;;;;;4958307;28;20591;-64
2023/12/01 09:46:14;;;;;;;60.85;35.00;;;-2.40;99.90;;;;;;4940744;28;20286;-64
2023/12/01 09:48:42;;;;;;;56.58;33.40;;;-2.00;99.90;;;;;;4955131;28;20759;-65
2023/12/01 09:51:08;;;;;;;56.08;33.72;;;-2.20;99.90;;;;;;4957226;28;20109;-65
2023/12/01 09:53:35;;;;;;;52.63;32.25;;;-1.80;99.90;;;;;;4941839;28;20046;-64
2023/12/01 09:56:05;;;;;;;51.70;32.35;;;-1.70;99.90;;;;;;4955735;28;20108;-65
2023/12/01 09:58:32;;;;;;;50.60;32.83;;;-1.50;99.90;;;;;;4940563;28;20513;-65
2023/12/01 10:00:59;;;;;;;55.40;33.28;;;-1.40;99.90;;;;;;4955168;28;20097;-68
2023/12/01 10:03:27;;;;;;;54.08;33.05;;;-1.00;99.90;;;;;;4923656;28;20061;-68
2023/12/01 10:05:56;;;;;;;51.65;31.75;;;-1.30;99.90;;;;;;4940159;28;20182;-69
2023/12/01 10:08:22;;;;;;;51.92;31.30;;;-0.80;99.90;;;;;;4924201;28;20130;-68
2023/12/01 10:10:47;;;;;;;49.65;31.40;;;-1.00;99.90;;;;;;4940924;28;20050;-68
2023/12/01 10:13:13;;;;;;;46.80;29.33;;;-0.70;99.90;;;;;;4956364;28;20548;-68
2023/12/01 10:15:40;;;;;;;44.85;29.48;;;-0.70;99.90;;;;;;4908358;28;20409;-68
2023/12/01 10:18:16;;;;;;;45.25;28.10;;;-0.70;99.90;;;;;;4955408;28;20074;-68
2023/12/01 10:21:07;;;;;;;44.50;28.42;;;-0.90;99.90;;;;;;4935801;28;20129;-69
2023/12/01 10:23:33;;;;;;;46.92;30.15;;;-0.90;99.90;;;;;;4921133;28;20038;-68
2023/12/01 10:26:03;;;;;;;44.35;29.35;;;-0.50;99.90;;;;;;4951716;28;20046;-67
2023/12/01 10:28:43;;;;;;;42.17;29.00;;;-0.70;99.90;;;;;;4936220;28;20517;-68
2023/12/01 10:31:09;;;;;;;42.55;28.20;;;-0.70;99.90;;;;;;4937006;28;20046;-67
2023/12/01 10:33:35;;;;;;;45.95;30.58;;;-0.60;99.90;;;;;;4951466;28;20101;-68
2023/12/01 10:36:06;;;;;;;43.63;30.10;;;-0.70;99.90;;;;;;4935247;28;20448;-69
2023/12/01 10:38:34;;;;;;;44.65;30.80;;;-0.40;99.90;;;;;;4935476;28;20329;-68
2023/12/01 10:41:01;;;;;;;44.20;29.60;;;-0.10;99.90;;;;;;4935119;28;20125;-68
2023/12/01 10:43:27;;;;;;;44.70;29.98;;;-0.10;99.90;;;;;;4940068;28;20096;-68
2023/12/01 10:45:53;;;;;;;49.55;31.23;;;-0.40;99.90;;;;;;4936046;28;20124;-68
2023/12/01 10:48:21;;;;;;;49.85;29.27;;;-0.10;99.90;;;;;;4920709;28;20161;-68
2023/12/01 10:50:48;;;;;;;43.58;29.58;;;-0.20;99.90;;;;;;4920761;28;20109;-68
2023/12/01 10:53:19;;;;;;;45.55;30.77;;;-0.10;99.90;;;;;;4920810;28;20074;-69
2023/12/01 10:55:47;;;;;;;45.03;30.23;;;0.00;99.90;;;;;;4952257;28;20054;-68
2023/12/01 10:58:21;;;;;;;43.47;29.90;;;0.80;99.90;;;;;;4952249;28;20389;-68
2023/12/01 11:00:51;;;;;;;44.63;29.23;;;1.80;99.90;;;;;;4952614;28;20366;-68
2023/12/01 11:03:20;;;;;;;42.45;29.15;;;2.50;99.90;;;;;;4951116;28;20190;-68
2023/12/01 11:05:52;;;;;;;39.35;27.58;;;2.80;99.90;;;;;;4936257;28;20094;-68
2023/12/01 11:08:54;;;;;;;37.30;27.85;;;3.20;99.90;;;;;;4968553;28;20062;-70
2023/12/01 11:11:36;;;;;;;37.88;26.90;;;3.80;99.90;;;;;;4936480;28;20437;-68
2023/12/01 11:14:19;;;;;;;39.80;28.73;;;4.10;99.90;;;;;;4951426;28;20134;-68
2023/12/01 11:16:47;;;;;;;35.55;27.77;;;3.90;99.90;;;;;;4951298;28;20117;-68
2023/12/01 11:19:14;;;;;;;38.15;28.50;;;4.40;99.90;;;;;;4938761;28;20195;-68
2023/12/01 11:21:44;;;;;;;32.53;24.75;;;5.00;99.90;;;;;;4936311;28;20118;-69
2023/12/01 11:24:32;;;;;;;33.47;25.77;;;5.40;99.90;;;;;;4935787;28;20042;-68
2023/12/01 11:27:03;;;;;;;33.33;26.48;;;5.30;99.90;;;;;;4919472;28;20154;-69
2023/12/01 11:29:30;;;;;;;34.03;25.85;;;5.30;99.90;;;;;;4968385;28;20043;-69
2023/12/01 11:31:59;;;;;;;32.13;24.25;;;5.40;99.90;;;;;;4935304;28;20046;-68
2023/12/01 11:34:27;;;;;;;29.90;22.60;;;5.40;99.90;;;;;;4935874;28;20543;-68
2023/12/01 11:36:53;;;;;;;29.48;23.67;;;5.40;99.90;;;;;;4935475;28;20602;-68
2023/12/01 11:39:23;;;;;;;35.40;26.30;;;5.40;99.90;;;;;;4934546;28;20113;-67
2023/12/01 11:42:13;;;;;;;35.40;26.10;;;5.60;99.90;;;;;;4952029;28;20373;-66
2023/12/01 11:44:40;;;;;;;35.05;25.88;;;5.90;99.90;;;;;;4951921;28;20578;-63
2023/12/01 11:47:08;;;;;;;36.75;25.38;;;6.30;99.90;;;;;;4945874;28;20046;-65
2023/12/01 11:49:40;;;;;;;39.85;26.08;;;5.60;99.90;;;;;;4971761;28;20181;-63
2023/12/01 11:52:19;;;;;;;41.08;26.02;;;4.90;99.90;;;;;;4972132;28;20168;-64
2023/12/01 11:54:49;;;;;;;35.83;25.50;;;4.10;99.90;;;;;;4959643;28;20039;-65
2023/12/01 11:57:17;;;;;;;32.28;22.90;;;3.50;99.90;;;;;;4926872;28;20082;-64
2023/12/01 11:59:47;;;;;;;32.45;23.38;;;3.10;99.90;;;;;;4959773;28;20053;-64
2023/12/01 12:02:14;;;;;;;35.90;25.55;;;2.30;99.90;;;;;;4943972;28;20069;-66
2023/12/01 12:04:40;;;;;;;38.55;26.83;;;2.00;99.90;;;;;;4939711;28;20118;-64
2023/12/01 12:07:06;;;;;;;38.50;26.95;;;1.90;99.90;;;;;;4923218;28;20084;-64
2023/12/01 12:09:34;;;;;;;40.47;26.65;;;1.90;99.90;;;;;;4986800;28;20055;-64
2023/12/01 12:12:04;;;;;;;39.13;26.40;;;1.40;99.90;;;;;;4938147;28;20078;-64
2023/12/01 12:14:30;;;;;;;35.08;23.50;;;1.50;99.90;;;;;;4936626;28;20049;-64
2023/12/01 12:16:57;;;;;;;38.53;25.67;;;1.30;99.90;;;;;;4937325;28;20640;-65
2023/12/01 12:19:23;;;;;;;43.00;27.70;;;0.90;99.90;;;;;;4936103;28;20047;-64
2023/12/01 12:21:49;;;;;;;38.13;25.83;;;0.80;99.90;;;;;;4937328;28;20049;-64
2023/12/01 12:28:12;;;;;;;40.45;25.90;;;0.90;99.90;;;;;;4966359;28;20129;-64
2023/12/01 12:30:37;;;;;;;39.15;23.17;;;1.40;99.90;;;;;;4955451;28;20061;-65
2023/12/01 12:33:04;;;;;;;39.72;26.25;;;2.10;99.90;;;;;;4939603;28;20046;-65